CRAWFORD  -  High Wind Watch High Wind Watch  
 MORROW  -  High Wind Watch High Wind Watch  
 RICHLAND  -  High Wind Watch High Wind Watch  

Active alerts

Crawford
  Details for Crawford High Wind Watch
Richland
  Details for Richland High Wind Watch
Morrow
  Details for Morrow High Wind Watch


My webcam more information My webcam



Nearby METAR Reports

   
KTOL - Toledo, OH
Updated: Feb 23 2019 8:52 am
Overcast  
Overcast  
   Wind: East 10.4 mph
Wind: East 10.4 mph
Temperature: 33.8°F
Wind Chill: 26.6°F
Dew Point: 24.8°F
Humidity: 70%
Barometer: 30.17 inHg
Clouds: Overcast
Visibility: 9 mi
Cloud details: Overcast 10000 ft
KTOL 231352Z 08009KT 9SM OVC100 01/M04 A3017 RMK AO2 SLP225 T00111044
KCMH - Columbus, OH
Updated: Feb 23 2019 8:51 am
Overcast  
Overcast  
   Wind: East 8.1 mph
Wind: East 8.1 mph
Temperature: 37.4°F
Wind Chill: 30.2°F
Dew Point: 28.4°F
Humidity: 70%
Barometer: 30.13 inHg
Clouds: Overcast
Visibility: 8 mi
Cloud details: Few Clouds 3000 ft,
Overcast 5000 ft
KCMH 231351Z 10007KT 8SM FEW030 OVC050 03/M02 A3013 RMK AO2 SLP211 T00331022
KCLE - Cleveland, OH
Updated: Feb 23 2019 8:51 am
Overcast  
Overcast  
   Wind: East 5.8 mph
Wind: East 5.8 mph
Temperature: 37.4°F
Wind Chill: 33.8°F
Dew Point: 24.8°F
Humidity: 60%
Barometer: 30.21 inHg
Clouds: Overcast
Visibility: 10 mi
Cloud details: Overcast 25000 ft
KCLE 231351Z 10005KT 10SM OVC250 03/M04 A3021 RMK AO2 SLP238 T00281044
KYNG - Youngstown, OH
Updated: Feb 23 2019 8:51 am
Overcast  
Overcast  
   Wind: ESE 12.7 mph
Wind: ESE 12.7 mph
Temperature: 33.8°F
Wind Chill: 24.8°F
Dew Point: 24.8°F
Humidity: 70%
Barometer: 30.21 inHg
Clouds: Overcast
Visibility: 10 mi
Cloud details: Overcast 24000 ft
KYNG 231351Z 11011KT 10SM OVC240 01/M04 A3021 RMK AO2 SLP241 T00111039
KDAY - Dayton, OH
Updated: Feb 23 2019 8:56 am
Overcast  
Overcast  
   Wind: ESE 9.2 mph
Wind: ESE 9.2 mph
Temperature: 39.2°F
Wind Chill: 33.8°F
Dew Point: 30.2°F
Humidity: 70%
Barometer: 30.1 inHg
Clouds: Overcast
Visibility: 8 mi
Cloud details: Overcast 3200 ft
KDAY 231356Z 12008KT 8SM OVC032 04/M01 A3010 RMK AO2 SLP202 T00391011
KZZV - Zanesville, OH
Updated: Feb 23 2019 8:53 am
Overcast  
Overcast  
   Wind: ESE 3.5 mph
Wind: ESE 3.5 mph
Temperature: 39.2°F
Wind Chill: 37.4°F
Dew Point: 26.6°F
Humidity: 61%
Barometer: 30.17 inHg
Clouds: Overcast
Visibility: 10 mi
Cloud details: Mostly Cloudy 2800 ft,
Overcast 4800 ft
KZZV 231353Z AUTO 11003KT 10SM BKN028 OVC048 04/M03 A3017 RMK AO2 SLP222 T00391033

Script developed by  Saratoga-weather.org Adapted for the template by  Weerstation Leuven

You find our weather info also at:

UK Metoffice

WeatherCloud

Weather Underground

Midwestern Weather Network

AWEKAS

Citizen Weather Observer Program (CWOP)

HAMweather, WeatherForYou, PWS Weather

Equipment we use:

Weather-station
Davis VP2

Weather-program
Cumulus

Weather-server
Raspberry Pi

Provider
GoDaddy

Davis VP2

Cumulus

Raspberry Pi

GoDaddy